Time;durP1;ratioP1;P1;durP2;ratioP2;P2;SDS_P1;SDS_P2;PMS_P1;PMS_P2;Temp;Humidity;BMP_temperature;BMP_pressure;BME280_temperature;BME280_humidity;BME280_pressure;Samples;Min_cycle;Max_cycle;Signal;HPM_P1;HPM_P2
2021/01/08 00:00:43;;;;;;;66.38;30.73;;;2.40;72.60;;;;;;4898312;29;20116;-71
2021/01/08 00:03:09;;;;;;;74.88;31.65;;;2.60;72.70;;;;;;4898489;29;20120;-71
2021/01/08 00:09:31;;;;;;;64.07;27.05;;;2.30;72.30;;;;;;4898489;29;20023;-71
2021/01/08 00:12:45;;;;;;;63.38;26.27;;;2.50;72.50;;;;;;4898824;29;20052;-71
2021/01/08 00:15:14;;;;;;;62.90;27.27;;;2.20;72.30;;;;;;4897872;29;20056;-71
2021/01/08 00:17:41;;;;;;;72.65;30.90;;;2.30;72.60;;;;;;4898149;29;20164;-71
2021/01/08 00:20:08;;;;;;;61.80;29.63;;;2.20;72.50;;;;;;4898527;29;20048;-71
2021/01/08 00:22:35;;;;;;;65.75;27.92;;;2.20;72.60;;;;;;4898340;29;20053;-71
2021/01/08 00:25:01;;;;;;;65.15;27.40;;;2.10;72.70;;;;;;4898798;29;20052;-71
2021/01/08 00:27:37;;;;;;;67.43;28.10;;;2.00;72.60;;;;;;4898071;29;20051;-71
2021/01/08 02:00:32;;;;;;;58.67;26.52;;;1.40;72.70;;;;;;4915452;29;20143;-72
2021/01/08 02:03:13;;;;;;;57.33;27.55;;;1.20;72.50;;;;;;4901062;29;20048;-72
2021/01/08 02:05:40;;;;;;;58.38;27.42;;;1.30;72.60;;;;;;4900578;29;20072;-73
2021/01/08 02:08:13;;;;;;;59.50;28.88;;;1.40;72.80;;;;;;4900816;29;20162;-72
2021/01/08 02:10:47;;;;;;;57.83;28.35;;;1.00;72.50;;;;;;4900268;29;20044;-73
2021/01/08 02:13:20;;;;;;;62.60;29.50;;;1.20;72.50;;;;;;4900713;29;20492;-72
2021/01/08 02:15:50;;;;;;;61.53;27.70;;;1.30;72.60;;;;;;4900446;29;20181;-73
2021/01/08 02:18:57;;;;;;;56.80;27.42;;;1.20;72.30;;;;;;4900867;29;20048;-72
2021/01/08 02:21:35;;;;;;;56.42;25.88;;;1.10;72.00;;;;;;4900161;29;20043;-72
2021/01/08 02:24:14;;;;;;;54.15;26.55;;;1.60;72.80;;;;;;4900538;29;20123;-72
2021/01/08 02:26:42;;;;;;;53.47;25.48;;;1.30;72.30;;;;;;4900305;29;20076;-73
2021/01/08 02:29:09;;;;;;;53.22;26.23;;;1.20;72.50;;;;;;4900124;29;20096;-72
2021/01/08 02:31:36;;;;;;;49.20;24.40;;;1.50;72.60;;;;;;4900114;29;20091;-72
2021/01/08 02:34:02;;;;;;;58.53;28.10;;;1.40;72.50;;;;;;4900494;29;20060;-72
2021/01/08 02:36:29;;;;;;;59.35;27.70;;;1.70;72.70;;;;;;4899913;29;20055;-72
2021/01/08 02:38:55;;;;;;;59.20;27.20;;;1.20;72.60;;;;;;4900515;29;20107;-72
2021/01/08 02:41:23;;;;;;;62.20;30.50;;;1.40;72.70;;;;;;4900109;29;20049;-73
2021/01/08 02:43:51;;;;;;;60.15;29.58;;;1.00;72.60;;;;;;4900017;29;20040;-72
2021/01/08 02:46:20;;;;;;;62.55;29.42;;;1.10;72.60;;;;;;4900071;29;20591;-73
2021/01/08 02:48:46;;;;;;;66.75;30.40;;;1.50;73.10;;;;;;4899737;29;20041;-72
2021/01/08 02:51:12;;;;;;;69.05;30.77;;;1.10;72.50;;;;;;4899722;29;20104;-73
2021/01/08 02:53:40;;;;;;;65.80;29.63;;;1.50;72.90;;;;;;4899597;29;20036;-72
2021/01/08 02:56:11;;;;;;;66.07;30.80;;;1.40;72.90;;;;;;4900265;29;20132;-72
2021/01/08 02:59:00;;;;;;;68.18;30.70;;;1.10;72.60;;;;;;4900160;29;20068;-72
2021/01/08 03:01:27;;;;;;;67.63;32.10;;;1.20;72.50;;;;;;4900046;29;20506;-72
2021/01/08 03:03:59;;;;;;;65.85;32.58;;;1.50;72.80;;;;;;4899361;29;20052;-72
2021/01/08 03:06:28;;;;;;;71.15;31.58;;;1.60;72.90;;;;;;4899696;29;20058;-73
2021/01/08 03:08:59;;;;;;;75.15;33.22;;;1.40;72.80;;;;;;4899948;29;20124;-70
2021/01/08 03:12:03;;;;;;;64.00;30.38;;;1.40;72.60;;;;;;4900338;29;20064;-72
2021/01/08 03:14:30;;;;;;;66.60;31.02;;;1.50;72.60;;;;;;4823144;29;20042;-72
2021/01/08 03:16:55;;;;;;;67.38;30.42;;;1.50;72.70;;;;;;4883574;29;20044;-71
2021/01/08 03:19:25;;;;;;;61.97;29.40;;;1.80;72.80;;;;;;4900160;29;20044;-72
2021/01/08 03:21:51;;;;;;;67.65;31.15;;;1.60;72.70;;;;;;4899559;29;20036;-72
2021/01/08 03:24:19;;;;;;;67.70;31.55;;;1.60;72.60;;;;;;4899352;29;20050;-72
2021/01/08 03:26:48;;;;;;;66.32;29.75;;;1.50;72.70;;;;;;4899236;29;20044;-72
2021/01/08 03:29:14;;;;;;;63.47;29.90;;;1.60;72.80;;;;;;4899276;29;20037;-72
2021/01/08 03:31:39;;;;;;;65.25;29.15;;;1.60;72.80;;;;;;4899300;29;20036;-72
2021/01/08 03:34:07;;;;;;;66.25;29.23;;;1.90;72.90;;;;;;4898840;29;20041;-72
2021/01/08 03:36:32;;;;;;;67.57;30.88;;;1.60;72.70;;;;;;4898951;29;20051;-72
2021/01/08 03:38:58;;;;;;;61.15;28.73;;;1.70;72.80;;;;;;4899295;29;20049;-72
2021/01/08 03:41:24;;;;;;;63.38;29.08;;;1.80;72.80;;;;;;4899277;29;20052;-72
2021/01/08 03:43:50;;;;;;;66.75;29.05;;;1.50;72.70;;;;;;4898844;29;20399;-72
2021/01/08 03:46:15;;;;;;;60.55;27.75;;;1.30;72.60;;;;;;4898736;29;20099;-72
2021/01/08 03:48:42;;;;;;;60.38;27.90;;;1.90;73.10;;;;;;4899038;29;20040;-72
2021/01/08 03:54:36;;;;;;;59.97;27.17;;;1.50;72.50;;;;;;4899111;29;20115;-72
2021/01/08 03:57:03;;;;;;;60.20;27.45;;;1.30;72.60;;;;;;4898692;29;20052;-72
2021/01/08 03:59:29;;;;;;;57.83;26.65;;;1.40;72.60;;;;;;4898468;29;20033;-72
2021/01/08 04:01:55;;;;;;;68.25;28.05;;;1.40;72.60;;;;;;4897545;29;20128;-72
2021/01/08 04:04:21;;;;;;;59.47;27.92;;;1.20;72.40;;;;;;4898408;29;20068;-73
2021/01/08 04:06:47;;;;;;;64.18;27.10;;;1.20;72.30;;;;;;4898614;29;20523;-73
2021/01/08 04:09:12;;;;;;;63.47;26.55;;;1.40;72.50;;;;;;4898029;29;20071;-73
2021/01/08 04:11:38;;;;;;;62.72;28.63;;;1.60;72.70;;;;;;4898488;29;20526;-73
2021/01/08 04:14:04;;;;;;;66.10;28.63;;;1.20;72.40;;;;;;4898379;29;20100;-73
2021/01/08 04:16:38;;;;;;;62.40;28.65;;;1.40;72.60;;;;;;4898162;29;20113;-72
2021/01/08 04:19:04;;;;;;;66.30;28.80;;;1.50;72.80;;;;;;4898598;29;20143;-73
2021/01/08 04:21:30;;;;;;;57.40;26.92;;;1.10;72.40;;;;;;4897944;29;20048;-73
2021/01/08 04:23:56;;;;;;;62.05;27.70;;;1.20;72.50;;;;;;4898213;29;20392;-73
2021/01/08 04:26:22;;;;;;;60.72;28.50;;;1.20;72.50;;;;;;4898451;29;20500;-72
2021/01/08 04:28:48;;;;;;;61.92;27.75;;;1.40;72.60;;;;;;4898177;29;20044;-73
2021/01/08 04:31:14;;;;;;;62.28;27.38;;;1.20;72.50;;;;;;4898267;29;20050;-73
2021/01/08 04:33:41;;;;;;;59.17;27.02;;;1.50;72.70;;;;;;4898189;29;20048;-73
2021/01/08 04:36:09;;;;;;;59.63;27.58;;;1.30;72.50;;;;;;4897442;29;20124;-73
2021/01/08 04:38:36;;;;;;;57.30;26.52;;;1.20;72.40;;;;;;4898083;29;20038;-73
2021/01/08 04:41:02;;;;;;;59.95;26.38;;;1.30;72.50;;;;;;4898120;29;20555;-73
2021/01/08 04:43:29;;;;;;;61.53;27.88;;;1.20;72.50;;;;;;4898185;29;20143;-73
2021/01/08 04:46:03;;;;;;;61.47;27.45;;;1.20;72.60;;;;;;4898124;29;20053;-73
2021/01/08 04:48:30;;;;;;;60.33;27.98;;;1.10;72.40;;;;;;4898167;29;20039;-73
2021/01/08 04:50:58;;;;;;;64.35;28.63;;;1.10;72.30;;;;;;4898039;29;20091;-73
2021/01/08 04:53:26;;;;;;;59.65;28.45;;;1.10;72.30;;;;;;4897677;29;20040;-73
2021/01/08 04:55:53;;;;;;;57.47;26.85;;;1.30;72.40;;;;;;4897786;29;20052;-73
2021/01/08 04:58:19;;;;;;;60.63;27.00;;;1.10;72.30;;;;;;4897892;29;20072;-73
2021/01/08 05:00:45;;;;;;;54.97;25.98;;;1.40;72.40;;;;;;4897654;29;20052;-73
2021/01/08 05:03:11;;;;;;;53.78;25.80;;;1.00;72.10;;;;;;4897512;29;20041;-73
2021/01/08 05:05:37;;;;;;;53.90;26.80;;;1.10;72.30;;;;;;4897569;29;20079;-73
2021/01/08 05:08:03;;;;;;;59.30;27.00;;;1.00;72.20;;;;;;4897952;29;20396;-73
2021/01/08 05:10:29;;;;;;;55.00;24.70;;;0.80;72.10;;;;;;4897951;29;20060;-73
2021/01/08 05:12:55;;;;;;;50.10;24.75;;;0.90;72.20;;;;;;4899279;29;20048;-73
2021/01/08 05:15:25;;;;;;;56.15;25.92;;;1.10;72.40;;;;;;4901440;29;20055;-72
2021/01/08 05:17:51;;;;;;;53.00;25.17;;;1.00;72.30;;;;;;4901331;29;20036;-73
2021/01/08 05:20:16;;;;;;;51.33;23.65;;;1.00;72.40;;;;;;4901095;29;20523;-73
2021/01/08 05:22:43;;;;;;;53.80;25.20;;;0.70;72.20;;;;;;4901258;29;20033;-73
2021/01/08 05:25:10;;;;;;;49.45;24.77;;;0.60;72.10;;;;;;4901376;29;20135;-73
2021/01/08 05:27:37;;;;;;;54.05;25.17;;;0.70;72.10;;;;;;4901043;29;20040;-73
2021/01/08 05:30:20;;;;;;;50.33;24.83;;;0.80;72.10;;;;;;4900832;29;20429;-73
2021/01/08 05:32:54;;;;;;;46.38;24.27;;;1.10;72.20;;;;;;4901327;29;20047;-73
2021/01/08 05:35:22;;;;;;;52.63;25.08;;;0.70;72.00;;;;;;4901263;29;20051;-73
2021/01/08 05:37:51;;;;;;;52.58;25.30;;;0.80;72.20;;;;;;4901089;29;20583;-73
2021/01/08 05:40:27;;;;;;;49.67;23.75;;;0.70;72.20;;;;;;4900910;29;20049;-73
2021/01/08 05:42:57;;;;;;;50.60;24.15;;;0.90;72.30;;;;;;4900842;29;20500;-73
2021/01/08 05:45:24;;;;;;;54.55;25.15;;;0.50;72.10;;;;;;4901005;29;20041;-73
2021/01/08 05:47:51;;;;;;;57.58;25.95;;;0.90;72.20;;;;;;4900601;29;20125;-73
2021/01/08 05:50:22;;;;;;;52.20;24.25;;;0.80;72.20;;;;;;4900567;29;20044;-73
2021/01/08 05:52:54;;;;;;;58.53;26.27;;;1.20;72.60;;;;;;4901105;29;20100;-73
2021/01/08 05:55:20;;;;;;;53.78;25.00;;;0.80;72.30;;;;;;4900656;29;20488;-73
2021/01/08 05:57:50;;;;;;;56.53;25.50;;;0.80;72.40;;;;;;4900797;29;20048;-73
2021/01/08 06:00:16;;;;;;;58.97;26.60;;;0.90;72.40;;;;;;4900082;29;20055;-73
2021/01/08 06:02:42;;;;;;;58.03;25.40;;;1.00;72.90;;;;;;4900591;29;20080;-73
2021/01/08 06:05:09;;;;;;;52.17;25.35;;;0.80;72.20;;;;;;4900620;29;20044;-73
2021/01/08 06:07:40;;;;;;;53.38;24.15;;;0.90;72.10;;;;;;4911838;29;20048;-73
2021/01/08 06:10:07;;;;;;;51.20;24.08;;;0.80;72.00;;;;;;4912900;29;20753;-74
2021/01/08 06:12:38;;;;;;;51.75;24.70;;;0.80;71.90;;;;;;4918646;29;20044;-72
2021/01/08 06:15:07;;;;;;;53.50;24.33;;;0.80;71.70;;;;;;4918093;29;20060;-72
2021/01/08 06:17:33;;;;;;;59.90;25.73;;;0.80;71.80;;;;;;4908883;29;20408;-72
2021/01/08 06:20:06;;;;;;;57.15;25.08;;;0.50;71.70;;;;;;4918373;29;20605;-72
2021/01/08 06:22:41;;;;;;;54.42;24.60;;;0.80;71.80;;;;;;4917574;29;20047;-72
2021/01/08 06:25:09;;;;;;;57.78;24.67;;;0.90;71.90;;;;;;4916887;29;20075;-71
2021/01/08 06:27:36;;;;;;;52.70;24.42;;;0.80;71.90;;;;;;4918236;29;20036;-72
2021/01/08 06:30:05;;;;;;;58.28;24.75;;;0.70;72.00;;;;;;4901162;29;20567;-73
2021/01/08 06:32:32;;;;;;;52.08;24.20;;;0.40;71.80;;;;;;4918855;29;20040;-73
2021/01/08 06:35:08;;;;;;;53.72;24.50;;;0.60;71.90;;;;;;4918336;29;20048;-76
2021/01/08 06:37:40;;;;;;;54.05;24.52;;;0.50;71.70;;;;;;4918452;29;20048;-73
2021/01/08 06:40:10;;;;;;;57.35;25.65;;;0.50;71.80;;;;;;4918347;29;20075;-72
2021/01/08 06:42:44;;;;;;;54.47;25.77;;;0.90;72.10;;;;;;4918556;29;20044;-72
2021/01/08 06:45:14;;;;;;;;;;;0.50;72.00;;;;;;4918480;29;20075;-72
2021/01/08 06:47:45;;;;;;;57.53;24.13;;;0.50;72.00;;;;;;4917807;29;19911;-72
2021/01/08 06:50:19;;;;;;;81.03;26.90;;;0.90;72.20;;;;;;4917827;29;20051;-72
2021/01/08 06:52:47;;;;;;;78.90;27.48;;;0.50;71.90;;;;;;4919177;29;20547;-72
2021/01/08 06:55:18;;;;;;;67.97;27.92;;;0.30;71.70;;;;;;4918832;29;20046;-72
2021/01/08 06:57:50;;;;;;;56.67;27.02;;;0.50;71.60;;;;;;4917762;29;20048;-73
2021/01/08 07:00:22;;;;;;;56.88;26.40;;;0.00;71.30;;;;;;4915695;29;20048;-72
2021/01/08 07:02:53;;;;;;;57.75;26.48;;;0.40;71.50;;;;;;4918678;29;20385;-72
2021/01/08 07:05:19;;;;;;;56.10;24.65;;;0.20;71.40;;;;;;4918357;29;20075;-72
2021/01/08 07:07:47;;;;;;;51.05;25.40;;;0.30;71.50;;;;;;4917287;29;20063;-72
2021/01/08 07:10:18;;;;;;;51.25;24.98;;;0.50;71.70;;;;;;4900143;29;20041;-72
2021/01/08 07:12:44;;;;;;;51.15;22.77;;;0.40;71.80;;;;;;4899151;29;20052;-71
2021/01/08 07:15:12;;;;;;;55.10;26.38;;;0.40;71.80;;;;;;4899249;29;20040;-72
2021/01/08 07:17:39;;;;;;;65.63;28.30;;;0.40;72.40;;;;;;4937044;29;20043;-71
2021/01/08 07:20:08;;;;;;;57.33;26.30;;;0.30;71.70;;;;;;4936424;29;20040;-71
2021/01/08 07:22:41;;;;;;;54.67;25.85;;;0.80;72.00;;;;;;4936777;29;20049;-69
2021/01/08 07:25:12;;;;;;;54.28;25.63;;;-0.10;71.40;;;;;;4936335;29;20050;-70
2021/01/08 07:27:40;;;;;;;51.95;24.50;;;0.50;71.70;;;;;;4936776;29;20083;-72
2021/01/08 07:30:08;;;;;;;58.42;26.65;;;0.50;71.60;;;;;;4911802;29;20043;-70
2021/01/08 07:32:48;;;;;;;53.60;25.90;;;0.80;71.70;;;;;;4898636;29;20036;-70
2021/01/08 07:35:24;;;;;;;57.00;24.95;;;0.60;71.50;;;;;;4898277;29;20040;-70
2021/01/08 07:38:12;;;;;;;54.67;23.95;;;0.80;71.70;;;;;;4898555;29;20036;-70
2021/01/08 07:40:50;;;;;;;51.92;24.65;;;0.60;71.70;;;;;;4898586;29;20067;-69
2021/01/08 07:43:16;;;;;;;52.45;24.55;;;0.60;71.80;;;;;;4897758;29;20135;-69
2021/01/08 07:45:52;;;;;;;53.08;25.13;;;0.40;71.60;;;;;;4898426;29;20128;-69
2021/01/08 07:48:24;;;;;;;54.60;26.35;;;0.90;71.70;;;;;;4898255;29;20055;-69
2021/01/08 07:51:07;;;;;;;56.75;26.23;;;0.60;71.40;;;;;;4897492;29;20048;-70
2021/01/08 07:53:43;;;;;;;59.58;26.70;;;0.70;71.50;;;;;;4898005;29;20081;-69
2021/01/08 07:56:25;;;;;;;52.10;24.60;;;0.70;71.60;;;;;;4897722;29;20054;-69
2021/01/08 07:59:05;;;;;;;59.17;25.58;;;0.70;71.50;;;;;;4919190;29;20048;-68
2021/01/08 08:01:35;;;;;;;54.35;24.30;;;1.30;71.80;;;;;;4935439;29;20048;-69
2021/01/08 08:04:09;;;;;;;52.53;24.48;;;0.90;71.70;;;;;;4935608;29;20135;-68
2021/01/08 08:06:38;;;;;;;52.00;25.50;;;0.90;71.90;;;;;;4935074;29;20043;-69
2021/01/08 08:09:06;;;;;;;57.58;25.65;;;1.00;71.90;;;;;;4935612;29;20048;-69
2021/01/08 08:11:35;;;;;;;51.03;25.05;;;1.00;71.70;;;;;;4935729;29;20487;-69
2021/01/08 08:14:02;;;;;;;52.72;26.48;;;0.70;71.40;;;;;;4935191;29;20040;-69
2021/01/08 08:16:38;;;;;;;55.70;28.20;;;0.90;71.40;;;;;;4935263;29;20050;-69
2021/01/08 08:19:05;;;;;;;72.13;33.15;;;1.00;71.40;;;;;;4935374;29;20047;-70
2021/01/08 08:21:31;;;;;;;59.90;29.55;;;1.10;71.40;;;;;;4935705;29;20043;-71
2021/01/08 08:24:04;;;;;;;63.13;31.60;;;1.00;71.20;;;;;;4936155;29;20102;-71
2021/01/08 08:26:32;;;;;;;57.00;26.52;;;1.40;71.20;;;;;;4935944;29;20071;-71
2021/01/08 08:29:06;;;;;;;56.63;26.60;;;1.60;71.20;;;;;;4936079;29;20039;-70
2021/01/08 08:31:52;;;;;;;57.47;27.35;;;1.30;71.30;;;;;;4936106;29;20044;-71
2021/01/08 08:34:29;;;;;;;53.97;25.70;;;1.60;70.80;;;;;;4935603;29;20043;-70
2021/01/08 08:37:08;;;;;;;53.17;25.58;;;2.70;71.00;;;;;;4935792;29;20388;-70
2021/01/08 08:39:33;;;;;;;61.33;26.95;;;2.60;70.20;;;;;;4936020;29;20510;-71
2021/01/08 08:42:43;;;;;;;55.83;26.52;;;2.70;69.90;;;;;;4936296;29;20040;-71
2021/01/08 08:45:33;;;;;;;57.55;28.60;;;3.00;69.60;;;;;;4936230;29;20039;-71
2021/01/08 08:48:06;;;;;;;57.78;28.67;;;3.50;69.40;;;;;;4930582;29;20039;-71
2021/01/08 08:50:33;;;;;;;74.38;28.95;;;3.50;68.80;;;;;;4939869;29;20566;-71
2021/01/08 08:53:15;;;;;;;83.05;26.80;;;3.60;68.20;;;;;;4939934;29;20035;-70
2021/01/08 08:55:41;;;;;;;63.40;26.80;;;3.70;68.00;;;;;;4939622;29;20099;-71
2021/01/08 08:58:12;;;;;;;58.58;27.52;;;3.50;67.80;;;;;;4939855;29;20046;-71
2021/01/08 09:00:41;;;;;;;58.13;26.42;;;3.80;67.70;;;;;;4939765;29;20050;-71
2021/01/08 09:03:21;;;;;;;60.97;27.10;;;4.10;67.60;;;;;;4940265;29;20044;-70
2021/01/08 09:05:48;;;;;;;63.33;26.45;;;4.00;67.10;;;;;;4939135;29;20507;-71
2021/01/08 09:08:14;;;;;;;99.68;24.52;;;4.00;67.30;;;;;;4922721;29;20702;-70
2021/01/08 09:11:26;;;;;;;132.02;27.15;;;4.10;67.10;;;;;;4939162;29;20040;-70
2021/01/08 09:14:04;;;;;;;101.03;27.73;;;4.10;67.00;;;;;;4939773;29;20043;-70
2021/01/08 09:16:51;;;;;;;69.97;27.48;;;4.10;67.20;;;;;;4939239;29;20078;-71
2021/01/08 09:19:33;;;;;;;94.88;29.00;;;3.90;67.10;;;;;;4939430;29;20067;-70
2021/01/08 09:22:03;;;;;;;67.72;25.83;;;4.00;67.30;;;;;;4938822;29;20043;-71
2021/01/08 09:24:32;;;;;;;65.40;24.83;;;3.80;67.40;;;;;;4922103;29;20079;-71
2021/01/08 09:27:03;;;;;;;100.20;25.23;;;3.90;67.40;;;;;;4939757;29;20180;-70
2021/01/08 09:29:31;;;;;;;122.03;23.02;;;4.20;67.60;;;;;;4939608;29;20051;-70
2021/01/08 09:31:58;;;;;;;131.50;25.50;;;4.20;67.80;;;;;;4939379;29;20074;-71
2021/01/08 09:34:26;;;;;;;161.25;29.88;;;4.50;68.00;;;;;;4939566;29;20115;-71
2021/01/08 09:36:53;;;;;;;151.07;27.90;;;4.50;67.90;;;;;;4939148;29;20048;-70
2021/01/08 09:39:20;;;;;;;192.38;31.50;;;4.50;67.80;;;;;;4938708;29;20035;-70
2021/01/08 09:41:56;;;;;;;137.90;30.05;;;4.80;67.80;;;;;;4939355;29;20048;-70
2021/01/08 09:44:31;;;;;;;91.40;31.63;;;5.00;67.80;;;;;;4938869;29;20032;-71
2021/01/08 09:47:00;;;;;;;;;;;5.50;67.60;;;;;;4939345;29;20495;-69
2021/01/08 09:49:38;;;;;;;98.60;45.45;;;6.00;68.20;;;;;;4938980;29;19915;-70
2021/01/08 09:52:04;;;;;;;62.95;31.60;;;6.20;68.20;;;;;;4938387;29;20089;-70
2021/01/08 09:54:44;;;;;;;57.25;28.90;;;6.30;68.20;;;;;;4938727;29;20098;-70
2021/01/08 09:57:23;;;;;;;69.50;41.72;;;6.50;69.20;;;;;;4937939;29;20044;-69
2021/01/08 09:59:59;;;;;;;67.75;39.58;;;6.50;70.00;;;;;;4936937;29;20047;-70
2021/01/08 10:02:39;;;;;;;63.58;35.83;;;6.50;68.60;;;;;;4938567;29;20082;-70
2021/01/08 10:05:07;;;;;;;62.83;32.78;;;6.60;67.20;;;;;;4938238;29;20495;-70
2021/01/08 10:07:45;;;;;;;59.70;33.00;;;6.30;66.80;;;;;;4938413;29;20044;-70
2021/01/08 10:10:35;;;;;;;56.42;31.52;;;6.00;67.70;;;;;;4937993;29;20700;-70
2021/01/08 10:13:01;;;;;;;53.78;29.10;;;6.10;68.50;;;;;;4929918;29;20114;-71
2021/01/08 10:15:34;;;;;;;54.72;29.13;;;6.10;68.40;;;;;;4938249;29;20499;-71
2021/01/08 10:18:11;;;;;;;51.80;27.30;;;5.80;68.00;;;;;;4938177;29;20126;-71
2021/01/08 10:20:45;;;;;;;55.60;29.38;;;5.90;67.90;;;;;;4938109;29;20083;-70
2021/01/08 10:23:13;;;;;;;78.38;44.33;;;6.00;67.70;;;;;;4938153;29;20119;-70
2021/01/08 10:25:40;;;;;;;80.15;42.85;;;5.80;67.40;;;;;;4938144;29;20169;-70
2021/01/08 10:28:21;;;;;;;103.93;56.78;;;5.80;67.30;;;;;;4937763;29;20039;-70
2021/01/08 10:30:49;;;;;;;63.28;33.55;;;5.90;67.30;;;;;;4938047;29;20032;-70
2021/01/08 10:33:15;;;;;;;57.63;30.77;;;6.10;67.40;;;;;;4938091;29;20484;-70
2021/01/08 10:35:49;;;;;;;53.97;29.15;;;5.80;67.30;;;;;;4937470;29;20570;-70
2021/01/08 10:38:16;;;;;;;57.08;29.23;;;6.00;67.60;;;;;;4937884;29;20055;-70
2021/01/08 10:40:42;;;;;;;55.33;29.27;;;6.10;67.90;;;;;;4938102;29;20066;-70
2021/01/08 10:43:08;;;;;;;53.38;27.60;;;6.10;68.40;;;;;;4938272;29;20399;-70
2021/01/08 10:45:35;;;;;;;52.40;26.55;;;6.10;67.90;;;;;;4938111;29;20131;-70
2021/01/08 10:48:01;;;;;;;52.30;25.73;;;6.20;68.00;;;;;;4937632;29;20047;-70
2021/01/08 10:50:26;;;;;;;47.45;25.33;;;6.10;68.00;;;;;;4936485;29;20035;-71
2021/01/08 10:52:52;;;;;;;47.72;26.00;;;6.00;68.10;;;;;;4938000;29;20046;-70
2021/01/08 10:55:18;;;;;;;48.65;26.38;;;6.10;68.30;;;;;;4938179;29;20110;-70
2021/01/08 10:57:44;;;;;;;47.85;24.90;;;6.20;68.60;;;;;;4937601;29;20071;-70
2021/01/08 11:00:14;;;;;;;50.85;26.02;;;6.40;68.80;;;;;;4937690;29;20035;-70
2021/01/08 11:02:40;;;;;;;51.47;27.52;;;6.30;68.70;;;;;;4937659;29;20265;-70
2021/01/08 11:05:07;;;;;;;49.17;26.10;;;6.30;68.70;;;;;;4937272;29;20044;-70
2021/01/08 11:07:33;;;;;;;48.80;26.73;;;6.20;68.60;;;;;;4938103;29;20094;-70
2021/01/08 11:10:05;;;;;;;47.45;25.95;;;6.50;68.90;;;;;;4937152;29;20513;-71
2021/01/08 11:12:34;;;;;;;53.15;27.52;;;6.30;68.70;;;;;;4937599;29;20035;-70
2021/01/08 11:15:05;;;;;;;52.97;27.73;;;6.50;68.80;;;;;;4937341;29;20055;-71
2021/01/08 11:20:53;;;;;;;48.45;26.48;;;6.50;68.70;;;;;;4937085;29;20051;-70
2021/01/08 11:23:18;;;;;;;54.67;28.15;;;6.60;68.90;;;;;;4936948;29;20091;-71
2021/01/08 11:25:44;;;;;;;54.20;28.98;;;6.60;68.90;;;;;;4937039;29;20051;-70
2021/01/08 11:28:11;;;;;;;55.33;30.70;;;6.60;69.10;;;;;;4936856;29;20538;-70
2021/01/08 11:31:34;;;;;;;52.90;28.55;;;6.60;69.30;;;;;;4937347;29;20479;-71
2021/01/08 11:34:03;;;;;;;54.63;27.40;;;6.50;69.30;;;;;;4936915;29;20047;-71
2021/01/08 11:36:29;;;;;;;53.35;27.75;;;6.60;69.70;;;;;;4936802;29;20099;-71
2021/01/08 11:38:55;;;;;;;49.45;27.42;;;6.70;70.60;;;;;;4936980;29;20063;-70
2021/01/08 11:41:22;;;;;;;50.72;26.58;;;6.70;70.00;;;;;;4936855;29;20073;-71
2021/01/08 11:43:49;;;;;;;49.25;25.83;;;6.60;69.90;;;;;;4936174;29;20088;-71
2021/01/08 11:46:19;;;;;;;48.60;25.77;;;6.80;70.10;;;;;;4936971;29;20515;-70
2021/01/08 11:48:46;;;;;;;44.40;24.58;;;6.90;70.20;;;;;;4936687;29;20047;-71
2021/01/08 11:51:13;;;;;;;41.00;23.45;;;6.90;70.70;;;;;;4936482;29;20065;-71
2021/01/08 11:53:43;;;;;;;46.22;23.98;;;6.70;70.20;;;;;;4936836;29;20043;-71
2021/01/08 11:56:10;;;;;;;42.63;23.52;;;6.90;70.30;;;;;;4936493;29;20519;-71
2021/01/08 11:58:37;;;;;;;42.05;22.98;;;7.10;70.40;;;;;;4936858;29;20047;-70
2021/01/08 12:01:04;;;;;;;42.40;23.35;;;7.10;70.40;;;;;;4936349;29;20072;-70
2021/01/08 12:03:30;;;;;;;42.83;22.48;;;7.40;70.60;;;;;;4936617;29;20040;-70
2021/01/08 12:05:58;;;;;;;43.70;23.25;;;7.20;70.40;;;;;;4936037;29;20048;-71
2021/01/08 12:08:24;;;;;;;43.58;22.73;;;7.30;70.40;;;;;;4936498;29;20047;-70
2021/01/08 12:10:50;;;;;;;44.22;22.60;;;7.40;70.60;;;;;;4935511;29;20036;-70
2021/01/08 12:13:16;;;;;;;41.28;23.00;;;7.40;70.60;;;;;;4935909;29;20043;-70
2021/01/08 12:15:42;;;;;;;42.38;23.08;;;7.20;70.50;;;;;;4936083;29;20498;-70
2021/01/08 12:18:09;;;;;;;42.08;22.90;;;7.40;70.60;;;;;;4936163;29;20039;-70
2021/01/08 12:20:36;;;;;;;43.90;22.98;;;7.40;70.50;;;;;;4935707;29;20065;-71
2021/01/08 12:23:03;;;;;;;44.58;23.98;;;7.60;70.60;;;;;;4935315;29;20044;-69
2021/01/08 12:25:29;;;;;;;42.17;22.75;;;7.50;70.50;;;;;;4936072;29;20043;-69
2021/01/08 12:27:55;;;;;;;35.05;19.10;;;7.60;70.40;;;;;;4935664;29;20203;-69
2021/01/08 12:30:21;;;;;;;32.97;18.75;;;7.50;70.30;;;;;;4936121;29;20526;-68
2021/01/08 12:32:47;;;;;;;33.83;19.15;;;7.50;70.20;;;;;;4935679;29;20630;-68
2021/01/08 12:35:12;;;;;;;35.47;19.33;;;7.70;70.40;;;;;;4935857;29;20443;-69
2021/01/08 12:37:38;;;;;;;35.00;19.88;;;7.70;70.00;;;;;;4936395;29;20049;-69
2021/01/08 12:40:05;;;;;;;40.97;22.40;;;7.80;69.80;;;;;;4935952;29;20407;-69
2021/01/08 12:42:31;;;;;;;32.80;17.92;;;7.90;69.90;;;;;;4935193;29;20043;-68
2021/01/08 12:44:57;;;;;;;40.67;21.95;;;7.70;69.70;;;;;;4935564;29;20566;-69
2021/01/08 12:47:22;;;;;;;35.25;18.98;;;7.70;69.60;;;;;;4924798;29;20436;-68
2021/01/08 12:49:48;;;;;;;34.53;18.92;;;7.70;69.50;;;;;;4916024;29;20040;-68
2021/01/08 12:52:14;;;;;;;33.15;17.98;;;7.80;69.50;;;;;;4916480;29;20051;-68
2021/01/08 12:54:40;;;;;;;31.98;18.17;;;7.80;69.50;;;;;;4916301;29;20099;-68
2021/01/08 12:57:05;;;;;;;33.33;19.45;;;7.70;69.40;;;;;;4916288;29;20076;-68
2021/01/08 12:59:31;;;;;;;30.50;17.50;;;7.50;69.10;;;;;;4915879;29;20032;-68
2021/01/08 13:01:57;;;;;;;31.77;17.35;;;7.70;69.20;;;;;;4916224;29;20050;-68
2021/01/08 13:04:24;;;;;;;32.30;17.67;;;7.60;69.30;;;;;;4916293;29;20040;-69
2021/01/08 13:06:50;;;;;;;30.00;15.90;;;7.50;69.20;;;;;;4916233;29;20052;-68
2021/01/08 13:09:15;;;;;;;26.83;15.13;;;7.60;69.10;;;;;;4915880;29;20533;-69
2021/01/08 13:11:41;;;;;;;29.20;16.13;;;7.60;69.10;;;;;;4916678;29;20043;-69
2021/01/08 13:14:07;;;;;;;23.35;13.45;;;7.60;69.00;;;;;;4911875;29;20040;-69
2021/01/08 13:16:33;;;;;;;26.83;14.20;;;7.40;68.80;;;;;;4902139;29;20072;-69
2021/01/08 13:18:58;;;;;;;28.10;15.73;;;7.80;69.10;;;;;;4914740;29;20047;-70
2021/01/08 13:21:24;;;;;;;35.05;19.30;;;7.80;69.00;;;;;;4915316;29;20404;-70
2021/01/08 13:23:50;;;;;;;35.28;19.85;;;7.50;68.70;;;;;;4900325;29;20040;-70
2021/01/08 13:26:26;;;;;;;34.05;17.52;;;7.50;68.70;;;;;;4896143;29;20052;-70
2021/01/08 13:28:53;;;;;;;31.75;16.60;;;7.50;68.70;;;;;;4895940;29;20508;-70
2021/01/08 13:31:26;;;;;;;27.38;15.02;;;7.50;68.70;;;;;;4895616;29;20048;-70
2021/01/08 13:33:53;;;;;;;27.02;14.55;;;7.60;68.80;;;;;;4897546;29;20040;-71
2021/01/08 13:36:20;;;;;;;28.73;14.55;;;7.50;68.80;;;;;;4911297;29;20055;-69
2021/01/08 13:38:46;;;;;;;27.65;14.07;;;7.50;68.80;;;;;;4918939;29;20548;-69
2021/01/08 13:41:12;;;;;;;27.02;13.93;;;7.70;68.80;;;;;;4917778;29;21263;-70
2021/01/08 13:43:39;;;;;;;24.48;13.48;;;7.60;68.70;;;;;;4917915;29;20043;-69
2021/01/08 13:46:05;;;;;;;23.40;12.55;;;7.50;68.70;;;;;;4919573;29;20079;-70
2021/01/08 13:48:31;;;;;;;24.67;12.80;;;7.60;68.70;;;;;;4920170;29;20526;-70
2021/01/08 13:50:57;;;;;;;21.23;11.95;;;7.50;68.60;;;;;;4920267;29;20396;-70
2021/01/08 13:53:23;;;;;;;22.02;12.43;;;7.50;68.50;;;;;;4920000;29;20051;-70
2021/01/08 13:55:49;;;;;;;24.40;12.18;;;7.50;68.50;;;;;;4919643;29;20056;-70
2021/01/08 13:58:14;;;;;;;22.80;12.30;;;7.60;68.50;;;;;;4919453;29;20395;-70
2021/01/08 14:00:40;;;;;;;25.98;13.23;;;7.50;68.40;;;;;;4919921;29;20505;-70
2021/01/08 14:03:06;;;;;;;22.00;11.77;;;7.40;68.30;;;;;;4919826;29;20201;-71
2021/01/08 14:05:32;;;;;;;22.33;12.07;;;7.50;68.30;;;;;;4919563;29;20043;-70
2021/01/08 14:07:59;;;;;;;21.27;12.18;;;7.40;68.20;;;;;;4919948;29;20103;-69
2021/01/08 14:10:25;;;;;;;20.38;11.00;;;7.50;68.70;;;;;;4919495;29;20040;-70
2021/01/08 14:12:50;;;;;;;23.33;11.77;;;7.30;68.10;;;;;;4919499;29;20039;-70
2021/01/08 14:15:17;;;;;;;23.85;12.35;;;7.30;68.00;;;;;;4919503;29;20052;-70
2021/01/08 14:17:43;;;;;;;21.63;11.30;;;7.40;68.00;;;;;;4919469;29;20050;-71
2021/01/08 14:20:09;;;;;;;23.73;11.80;;;7.30;67.90;;;;;;4919425;29;20054;-70
2021/01/08 14:22:35;;;;;;;22.25;11.95;;;7.30;67.90;;;;;;4919528;29;20044;-70
2021/01/08 14:25:03;;;;;;;23.85;11.93;;;7.50;68.00;;;;;;4919464;29;20051;-70
2021/01/08 14:27:29;;;;;;;25.35;12.07;;;7.20;68.20;;;;;;4919704;29;20040;-70
2021/01/08 14:29:55;;;;;;;25.83;12.85;;;7.20;67.70;;;;;;4919589;29;20044;-69
2021/01/08 14:32:21;;;;;;;22.92;11.88;;;7.40;67.80;;;;;;4919444;29;20054;-70